sensor_id;sensor_type;location;lat;lon;timestamp;P1;durP1;ratioP1;P2;durP2;ratioP2
78772;SDS011;68111;44.728;11.290;2023-06-26T00:01:56;8.23;;;4.53;;
78772;SDS011;68111;44.728;11.290;2023-06-26T00:04:23;6.13;;;4.10;;
78772;SDS011;68111;44.728;11.290;2023-06-26T00:06:49;6.80;;;4.28;;
78772;SDS011;68111;44.728;11.290;2023-06-26T00:09:16;6.70;;;4.28;;
78772;SDS011;68111;44.728;11.290;2023-06-26T00:11:43;7.88;;;4.13;;
78772;SDS011;68111;44.728;11.290;2023-06-26T00:14:09;7.65;;;4.20;;
78772;SDS011;68111;44.728;11.290;2023-06-26T00:16:36;7.35;;;4.30;;
78772;SDS011;68111;44.728;11.290;2023-06-26T00:19:03;6.68;;;4.05;;
78772;SDS011;68111;44.728;11.290;2023-06-26T00:21:29;6.88;;;4.50;;
78772;SDS011;68111;44.728;11.290;2023-06-26T00:23:56;7.85;;;4.50;;
78772;SDS011;68111;44.728;11.290;2023-06-26T00:26:23;7.75;;;4.57;;
78772;SDS011;68111;44.728;11.290;2023-06-26T00:28:50;10.68;;;4.18;;
78772;SDS011;68111;44.728;11.290;2023-06-26T00:31:19;7.28;;;4.70;;
78772;SDS011;68111;44.728;11.290;2023-06-26T00:33:45;8.73;;;4.70;;
78772;SDS011;68111;44.728;11.290;2023-06-26T00:36:12;9.13;;;4.43;;
78772;SDS011;68111;44.728;11.290;2023-06-26T00:38:39;8.30;;;4.15;;
78772;SDS011;68111;44.728;11.290;2023-06-26T00:41:06;8.40;;;4.25;;
78772;SDS011;68111;44.728;11.290;2023-06-26T00:43:38;7.10;;;4.05;;
78772;SDS011;68111;44.728;11.290;2023-06-26T00:46:09;5.28;;;3.80;;
78772;SDS011;68111;44.728;11.290;2023-06-26T00:48:38;7.97;;;4.40;;
78772;SDS011;68111;44.728;11.290;2023-06-26T00:51:11;6.85;;;4.20;;
78772;SDS011;68111;44.728;11.290;2023-06-26T00:53:37;6.30;;;4.00;;
78772;SDS011;68111;44.728;11.290;2023-06-26T00:56:04;7.95;;;4.35;;
78772;SDS011;68111;44.728;11.290;2023-06-26T00:58:32;8.05;;;4.32;;
78772;SDS011;68111;44.728;11.290;2023-06-26T01:00:58;6.43;;;3.85;;
78772;SDS011;68111;44.728;11.290;2023-06-26T01:03:27;6.22;;;4.00;;
78772;SDS011;68111;44.728;11.290;2023-06-26T01:05:55;5.82;;;3.72;;
78772;SDS011;68111;44.728;11.290;2023-06-26T01:08:24;8.70;;;4.00;;
78772;SDS011;68111;44.728;11.290;2023-06-26T01:10:53;7.07;;;4.18;;
78772;SDS011;68111;44.728;11.290;2023-06-26T01:13:19;9.40;;;4.20;;
78772;SDS011;68111;44.728;11.290;2023-06-26T01:15:47;6.97;;;3.85;;
78772;SDS011;68111;44.728;11.290;2023-06-26T01:18:14;7.95;;;3.90;;
78772;SDS011;68111;44.728;11.290;2023-06-26T01:20:43;7.00;;;3.80;;
78772;SDS011;68111;44.728;11.290;2023-06-26T01:26:26;5.28;;;3.80;;
78772;SDS011;68111;44.728;11.290;2023-06-26T01:28:56;7.25;;;4.38;;
78772;SDS011;68111;44.728;11.290;2023-06-26T01:31:25;6.50;;;3.83;;
78772;SDS011;68111;44.728;11.290;2023-06-26T01:33:54;8.07;;;4.38;;
78772;SDS011;68111;44.728;11.290;2023-06-26T01:36:21;7.20;;;3.92;;
78772;SDS011;68111;44.728;11.290;2023-06-26T01:38:48;6.18;;;3.92;;
78772;SDS011;68111;44.728;11.290;2023-06-26T01:41:15;8.18;;;4.05;;
78772;SDS011;68111;44.728;11.290;2023-06-26T01:44:01;8.02;;;4.35;;
78772;SDS011;68111;44.728;11.290;2023-06-26T01:47:00;9.25;;;4.05;;
78772;SDS011;68111;44.728;11.290;2023-06-26T01:49:49;6.25;;;3.72;;
78772;SDS011;68111;44.728;11.290;2023-06-26T01:52:29;5.93;;;3.60;;
78772;SDS011;68111;44.728;11.290;2023-06-26T01:55:24;6.68;;;3.78;;
78772;SDS011;68111;44.728;11.290;2023-06-26T01:57:54;6.78;;;4.10;;
78772;SDS011;68111;44.728;11.290;2023-06-26T02:00:23;5.97;;;3.90;;
78772;SDS011;68111;44.728;11.290;2023-06-26T02:02:51;6.50;;;3.58;;
78772;SDS011;68111;44.728;11.290;2023-06-26T02:05:18;7.15;;;4.45;;
78772;SDS011;68111;44.728;11.290;2023-06-26T02:07:45;7.47;;;4.20;;
78772;SDS011;68111;44.728;11.290;2023-06-26T02:10:14;6.72;;;4.20;;
78772;SDS011;68111;44.728;11.290;2023-06-26T02:12:41;9.18;;;4.25;;
78772;SDS011;68111;44.728;11.290;2023-06-26T02:15:11;6.32;;;4.30;;
78772;SDS011;68111;44.728;11.290;2023-06-26T02:17:38;8.18;;;3.95;;
78772;SDS011;68111;44.728;11.290;2023-06-26T02:20:05;7.30;;;3.78;;
78772;SDS011;68111;44.728;11.290;2023-06-26T02:22:35;7.22;;;4.28;;
78772;SDS011;68111;44.728;11.290;2023-06-26T02:25:02;5.63;;;4.15;;
78772;SDS011;68111;44.728;11.290;2023-06-26T02:27:31;8.13;;;4.00;;
78772;SDS011;68111;44.728;11.290;2023-06-26T02:29:58;7.43;;;4.00;;
78772;SDS011;68111;44.728;11.290;2023-06-26T02:32:25;7.13;;;4.20;;
78772;SDS011;68111;44.728;11.290;2023-06-26T02:34:51;6.07;;;3.80;;
78772;SDS011;68111;44.728;11.290;2023-06-26T02:37:18;5.53;;;3.65;;
78772;SDS011;68111;44.728;11.290;2023-06-26T02:39:45;8.10;;;4.00;;
78772;SDS011;68111;44.728;11.290;2023-06-26T02:42:12;6.55;;;4.20;;
78772;SDS011;68111;44.728;11.290;2023-06-26T02:44:40;8.60;;;4.20;;
78772;SDS011;68111;44.728;11.290;2023-06-26T02:47:07;8.18;;;4.32;;
78772;SDS011;68111;44.728;11.290;2023-06-26T02:49:37;8.23;;;4.22;;
78772;SDS011;68111;44.728;11.290;2023-06-26T02:52:04;6.55;;;4.15;;
78772;SDS011;68111;44.728;11.290;2023-06-26T02:54:31;7.47;;;4.20;;
78772;SDS011;68111;44.728;11.290;2023-06-26T02:57:02;7.15;;;4.70;;
78772;SDS011;68111;44.728;11.290;2023-06-26T02:59:31;7.00;;;4.55;;
78772;SDS011;68111;44.728;11.290;2023-06-26T03:01:57;7.93;;;4.55;;
78772;SDS011;68111;44.728;11.290;2023-06-26T03:04:34;7.05;;;4.25;;
78772;SDS011;68111;44.728;11.290;2023-06-26T03:07:07;9.07;;;4.15;;
78772;SDS011;68111;44.728;11.290;2023-06-26T03:09:36;5.88;;;4.18;;
78772;SDS011;68111;44.728;11.290;2023-06-26T03:12:03;8.77;;;4.85;;
78772;SDS011;68111;44.728;11.290;2023-06-26T03:14:32;7.78;;;4.13;;
78772;SDS011;68111;44.728;11.290;2023-06-26T03:16:59;6.60;;;4.03;;
78772;SDS011;68111;44.728;11.290;2023-06-26T03:19:31;6.32;;;4.20;;
78772;SDS011;68111;44.728;11.290;2023-06-26T03:22:13;6.40;;;4.38;;
78772;SDS011;68111;44.728;11.290;2023-06-26T03:24:40;7.13;;;4.20;;
78772;SDS011;68111;44.728;11.290;2023-06-26T03:27:07;9.40;;;4.22;;
78772;SDS011;68111;44.728;11.290;2023-06-26T03:29:36;6.35;;;4.40;;
78772;SDS011;68111;44.728;11.290;2023-06-26T03:32:02;7.20;;;4.53;;
78772;SDS011;68111;44.728;11.290;2023-06-26T03:34:30;7.13;;;4.30;;
78772;SDS011;68111;44.728;11.290;2023-06-26T03:36:56;6.90;;;4.28;;
78772;SDS011;68111;44.728;11.290;2023-06-26T03:39:23;6.70;;;4.35;;
78772;SDS011;68111;44.728;11.290;2023-06-26T03:41:50;7.65;;;4.18;;
78772;SDS011;68111;44.728;11.290;2023-06-26T03:44:19;7.22;;;4.32;;
78772;SDS011;68111;44.728;11.290;2023-06-26T03:46:47;7.07;;;4.00;;
78772;SDS011;68111;44.728;11.290;2023-06-26T03:49:14;9.45;;;4.55;;
78772;SDS011;68111;44.728;11.290;2023-06-26T03:51:41;8.63;;;4.60;;
78772;SDS011;68111;44.728;11.290;2023-06-26T03:54:08;7.90;;;4.07;;
78772;SDS011;68111;44.728;11.290;2023-06-26T03:56:34;6.15;;;3.88;;
78772;SDS011;68111;44.728;11.290;2023-06-26T03:59:01;8.05;;;4.50;;
78772;SDS011;68111;44.728;11.290;2023-06-26T04:01:28;6.70;;;4.18;;
78772;SDS011;68111;44.728;11.290;2023-06-26T04:03:55;6.88;;;4.30;;
78772;SDS011;68111;44.728;11.290;2023-06-26T04:06:21;6.80;;;4.45;;
78772;SDS011;68111;44.728;11.290;2023-06-26T04:08:48;26.80;;;5.68;;
78772;SDS011;68111;44.728;11.290;2023-06-26T04:11:15;16.27;;;5.20;;
78772;SDS011;68111;44.728;11.290;2023-06-26T04:13:41;7.93;;;4.35;;
78772;SDS011;68111;44.728;11.290;2023-06-26T04:16:08;8.77;;;4.30;;
78772;SDS011;68111;44.728;11.290;2023-06-26T04:18:37;10.70;;;4.55;;
78772;SDS011;68111;44.728;11.290;2023-06-26T04:21:05;8.57;;;4.40;;
78772;SDS011;68111;44.728;11.290;2023-06-26T04:23:33;10.35;;;4.15;;
78772;SDS011;68111;44.728;11.290;2023-06-26T04:26:00;8.95;;;4.40;;
78772;SDS011;68111;44.728;11.290;2023-06-26T04:28:28;10.75;;;4.40;;
78772;SDS011;68111;44.728;11.290;2023-06-26T04:30:55;10.00;;;4.38;;
78772;SDS011;68111;44.728;11.290;2023-06-26T04:33:22;10.25;;;4.68;;
78772;SDS011;68111;44.728;11.290;2023-06-26T04:35:49;7.35;;;4.13;;
78772;SDS011;68111;44.728;11.290;2023-06-26T04:38:16;8.73;;;4.22;;
78772;SDS011;68111;44.728;11.290;2023-06-26T04:40:43;6.90;;;4.40;;
78772;SDS011;68111;44.728;11.290;2023-06-26T04:43:10;6.68;;;4.60;;
78772;SDS011;68111;44.728;11.290;2023-06-26T04:45:37;9.95;;;4.47;;
78772;SDS011;68111;44.728;11.290;2023-06-26T04:48:03;11.23;;;4.50;;
78772;SDS011;68111;44.728;11.290;2023-06-26T04:50:32;7.85;;;4.13;;
78772;SDS011;68111;44.728;11.290;2023-06-26T04:52:59;9.85;;;4.55;;
78772;SDS011;68111;44.728;11.290;2023-06-26T04:55:26;9.52;;;4.78;;
78772;SDS011;68111;44.728;11.290;2023-06-26T04:57:53;7.47;;;4.68;;
78772;SDS011;68111;44.728;11.290;2023-06-26T05:00:20;9.43;;;4.65;;
78772;SDS011;68111;44.728;11.290;2023-06-26T05:02:47;10.45;;;4.85;;
78772;SDS011;68111;44.728;11.290;2023-06-26T05:05:14;6.75;;;4.82;;
78772;SDS011;68111;44.728;11.290;2023-06-26T05:07:41;8.05;;;4.32;;
78772;SDS011;68111;44.728;11.290;2023-06-26T05:10:08;8.85;;;4.40;;
78772;SDS011;68111;44.728;11.290;2023-06-26T05:12:34;8.60;;;4.72;;
78772;SDS011;68111;44.728;11.290;2023-06-26T05:15:01;8.98;;;4.90;;
78772;SDS011;68111;44.728;11.290;2023-06-26T05:17:28;7.13;;;5.22;;
78772;SDS011;68111;44.728;11.290;2023-06-26T05:19:55;7.55;;;4.82;;
78772;SDS011;68111;44.728;11.290;2023-06-26T05:22:21;8.32;;;5.18;;
78772;SDS011;68111;44.728;11.290;2023-06-26T05:24:49;6.47;;;4.47;;
78772;SDS011;68111;44.728;11.290;2023-06-26T05:27:18;7.38;;;4.80;;
78772;SDS011;68111;44.728;11.290;2023-06-26T05:29:47;7.90;;;4.53;;
78772;SDS011;68111;44.728;11.290;2023-06-26T05:32:15;6.85;;;5.13;;
78772;SDS011;68111;44.728;11.290;2023-06-26T05:34:48;7.72;;;4.80;;
78772;SDS011;68111;44.728;11.290;2023-06-26T05:37:20;8.05;;;5.15;;
78772;SDS011;68111;44.728;11.290;2023-06-26T05:39:48;8.90;;;5.00;;
78772;SDS011;68111;44.728;11.290;2023-06-26T05:42:15;13.10;;;5.60;;
78772;SDS011;68111;44.728;11.290;2023-06-26T05:44:42;8.25;;;4.95;;
78772;SDS011;68111;44.728;11.290;2023-06-26T05:47:08;7.50;;;5.30;;
78772;SDS011;68111;44.728;11.290;2023-06-26T05:49:35;8.57;;;5.50;;
78772;SDS011;68111;44.728;11.290;2023-06-26T05:52:02;11.60;;;6.47;;
78772;SDS011;68111;44.728;11.290;2023-06-26T05:54:29;10.25;;;6.22;;
78772;SDS011;68111;44.728;11.290;2023-06-26T05:56:57;8.63;;;6.35;;
78772;SDS011;68111;44.728;11.290;2023-06-26T05:59:27;11.35;;;6.30;;
78772;SDS011;68111;44.728;11.290;2023-06-26T06:01:57;7.97;;;6.43;;
78772;SDS011;68111;44.728;11.290;2023-06-26T06:04:24;9.07;;;6.70;;
78772;SDS011;68111;44.728;11.290;2023-06-26T06:06:51;12.27;;;7.50;;
78772;SDS011;68111;44.728;11.290;2023-06-26T06:09:18;9.20;;;7.07;;
78772;SDS011;68111;44.728;11.290;2023-06-26T06:11:45;8.75;;;6.68;;
78772;SDS011;68111;44.728;11.290;2023-06-26T06:14:12;12.07;;;7.25;;
78772;SDS011;68111;44.728;11.290;2023-06-26T06:16:39;10.48;;;7.00;;
78772;SDS011;68111;44.728;11.290;2023-06-26T06:19:06;8.10;;;6.55;;
78772;SDS011;68111;44.728;11.290;2023-06-26T06:21:34;9.75;;;6.32;;
78772;SDS011;68111;44.728;11.290;2023-06-26T06:24:00;10.30;;;6.05;;
78772;SDS011;68111;44.728;11.290;2023-06-26T06:26:27;10.70;;;7.32;;
78772;SDS011;68111;44.728;11.290;2023-06-26T06:28:54;11.45;;;7.82;;
78772;SDS011;68111;44.728;11.290;2023-06-26T06:31:21;15.05;;;7.53;;
78772;SDS011;68111;44.728;11.290;2023-06-26T06:33:48;13.98;;;7.80;;
78772;SDS011;68111;44.728;11.290;2023-06-26T06:36:14;10.60;;;7.57;;
78772;SDS011;68111;44.728;11.290;2023-06-26T06:38:44;16.02;;;9.45;;
78772;SDS011;68111;44.728;11.290;2023-06-26T06:41:11;9.80;;;7.68;;
78772;SDS011;68111;44.728;11.290;2023-06-26T06:43:38;11.00;;;7.22;;
78772;SDS011;68111;44.728;11.290;2023-06-26T06:46:05;10.60;;;7.30;;
78772;SDS011;68111;44.728;11.290;2023-06-26T06:48:32;11.25;;;7.00;;
78772;SDS011;68111;44.728;11.290;2023-06-26T06:50:59;9.13;;;7.30;;
78772;SDS011;68111;44.728;11.290;2023-06-26T06:53:25;13.75;;;7.15;;
78772;SDS011;68111;44.728;11.290;2023-06-26T06:55:52;8.85;;;6.40;;
78772;SDS011;68111;44.728;11.290;2023-06-26T06:58:19;9.93;;;7.20;;
78772;SDS011;68111;44.728;11.290;2023-06-26T07:00:46;8.85;;;7.00;;
78772;SDS011;68111;44.728;11.290;2023-06-26T07:03:13;9.35;;;7.00;;
78772;SDS011;68111;44.728;11.290;2023-06-26T07:05:43;10.43;;;6.20;;
78772;SDS011;68111;44.728;11.290;2023-06-26T07:08:10;8.98;;;6.95;;
78772;SDS011;68111;44.728;11.290;2023-06-26T07:10:37;8.25;;;6.22;;
78772;SDS011;68111;44.728;11.290;2023-06-26T07:13:05;8.25;;;6.55;;
78772;SDS011;68111;44.728;11.290;2023-06-26T07:15:31;9.07;;;6.18;;
78772;SDS011;68111;44.728;11.290;2023-06-26T07:17:58;8.43;;;6.05;;
78772;SDS011;68111;44.728;11.290;2023-06-26T07:20:25;10.10;;;6.68;;
78772;SDS011;68111;44.728;11.290;2023-06-26T07:22:52;9.18;;;6.30;;
78772;SDS011;68111;44.728;11.290;2023-06-26T07:25:19;8.30;;;6.75;;
78772;SDS011;68111;44.728;11.290;2023-06-26T07:27:46;10.63;;;6.03;;
78772;SDS011;68111;44.728;11.290;2023-06-26T07:30:12;7.30;;;6.03;;
78772;SDS011;68111;44.728;11.290;2023-06-26T07:32:45;7.75;;;6.10;;
78772;SDS011;68111;44.728;11.290;2023-06-26T07:35:12;7.95;;;6.10;;
78772;SDS011;68111;44.728;11.290;2023-06-26T07:37:38;6.75;;;5.80;;
78772;SDS011;68111;44.728;11.290;2023-06-26T07:40:07;7.40;;;5.30;;
78772;SDS011;68111;44.728;11.290;2023-06-26T07:42:35;10.43;;;5.60;;
78772;SDS011;68111;44.728;11.290;2023-06-26T07:45:02;7.78;;;5.95;;
78772;SDS011;68111;44.728;11.290;2023-06-26T07:47:36;10.80;;;5.53;;
78772;SDS011;68111;44.728;11.290;2023-06-26T07:50:04;6.68;;;5.22;;
78772;SDS011;68111;44.728;11.290;2023-06-26T07:52:31;7.55;;;5.30;;
78772;SDS011;68111;44.728;11.290;2023-06-26T07:54:58;7.50;;;4.85;;
78772;SDS011;68111;44.728;11.290;2023-06-26T07:57:25;5.97;;;4.90;;
78772;SDS011;68111;44.728;11.290;2023-06-26T07:59:52;9.13;;;5.78;;
78772;SDS011;68111;44.728;11.290;2023-06-26T08:02:18;7.38;;;5.07;;
78772;SDS011;68111;44.728;11.290;2023-06-26T08:04:45;7.43;;;5.05;;
78772;SDS011;68111;44.728;11.290;2023-06-26T08:07:12;10.73;;;5.50;;
78772;SDS011;68111;44.728;11.290;2023-06-26T08:09:40;9.25;;;5.15;;
78772;SDS011;68111;44.728;11.290;2023-06-26T08:12:08;10.23;;;5.50;;
78772;SDS011;68111;44.728;11.290;2023-06-26T08:14:37;7.10;;;5.10;;
78772;SDS011;68111;44.728;11.290;2023-06-26T08:17:04;8.27;;;5.32;;
78772;SDS011;68111;44.728;11.290;2023-06-26T08:19:31;7.10;;;5.20;;
78772;SDS011;68111;44.728;11.290;2023-06-26T08:21:57;6.97;;;4.60;;
78772;SDS011;68111;44.728;11.290;2023-06-26T08:24:24;6.35;;;4.63;;
78772;SDS011;68111;44.728;11.290;2023-06-26T08:26:51;8.40;;;4.65;;
78772;SDS011;68111;44.728;11.290;2023-06-26T08:29:17;7.38;;;5.10;;
78772;SDS011;68111;44.728;11.290;2023-06-26T08:31:44;5.90;;;4.70;;
78772;SDS011;68111;44.728;11.290;2023-06-26T08:34:11;6.32;;;5.00;;
78772;SDS011;68111;44.728;11.290;2023-06-26T08:36:38;9.75;;;5.57;;
78772;SDS011;68111;44.728;11.290;2023-06-26T08:39:05;5.70;;;5.07;;
78772;SDS011;68111;44.728;11.290;2023-06-26T08:41:32;6.00;;;5.30;;
78772;SDS011;68111;44.728;11.290;2023-06-26T08:43:59;7.80;;;5.40;;
78772;SDS011;68111;44.728;11.290;2023-06-26T08:46:26;9.05;;;5.25;;
78772;SDS011;68111;44.728;11.290;2023-06-26T08:48:55;6.35;;;5.65;;
78772;SDS011;68111;44.728;11.290;2023-06-26T08:51:25;6.18;;;5.57;;
78772;SDS011;68111;44.728;11.290;2023-06-26T08:53:58;8.40;;;6.22;;
78772;SDS011;68111;44.728;11.290;2023-06-26T08:56:36;5.75;;;4.90;;
78772;SDS011;68111;44.728;11.290;2023-06-26T08:59:06;6.07;;;5.47;;
78772;SDS011;68111;44.728;11.290;2023-06-26T09:01:34;5.70;;;5.18;;
78772;SDS011;68111;44.728;11.290;2023-06-26T09:04:01;6.85;;;5.30;;
78772;SDS011;68111;44.728;11.290;2023-06-26T09:06:30;6.05;;;5.28;;
78772;SDS011;68111;44.728;11.290;2023-06-26T09:08:56;5.50;;;4.97;;
78772;SDS011;68111;44.728;11.290;2023-06-26T09:11:23;6.63;;;5.78;;
78772;SDS011;68111;44.728;11.290;2023-06-26T09:13:50;7.13;;;5.30;;
78772;SDS011;68111;44.728;11.290;2023-06-26T09:16:18;6.13;;;5.30;;
78772;SDS011;68111;44.728;11.290;2023-06-26T09:18:52;6.10;;;5.50;;
78772;SDS011;68111;44.728;11.290;2023-06-26T09:21:19;7.25;;;5.38;;
78772;SDS011;68111;44.728;11.290;2023-06-26T09:23:49;8.23;;;5.50;;
78772;SDS011;68111;44.728;11.290;2023-06-26T09:26:16;5.68;;;5.13;;
78772;SDS011;68111;44.728;11.290;2023-06-26T09:28:43;5.90;;;5.32;;
78772;SDS011;68111;44.728;11.290;2023-06-26T09:31:10;10.40;;;5.25;;
78772;SDS011;68111;44.728;11.290;2023-06-26T09:33:42;8.10;;;5.65;;
78772;SDS011;68111;44.728;11.290;2023-06-26T09:36:20;7.18;;;5.10;;
78772;SDS011;68111;44.728;11.290;2023-06-26T09:38:51;6.65;;;6.05;;
78772;SDS011;68111;44.728;11.290;2023-06-26T09:41:18;7.85;;;5.57;;
78772;SDS011;68111;44.728;11.290;2023-06-26T09:43:45;7.57;;;5.13;;
78772;SDS011;68111;44.728;11.290;2023-06-26T09:46:25;8.15;;;5.13;;
78772;SDS011;68111;44.728;11.290;2023-06-26T09:49:09;6.32;;;5.38;;
78772;SDS011;68111;44.728;11.290;2023-06-26T09:51:40;8.85;;;6.00;;
78772;SDS011;68111;44.728;11.290;2023-06-26T09:54:09;6.63;;;5.15;;
78772;SDS011;68111;44.728;11.290;2023-06-26T09:56:36;7.68;;;5.70;;
78772;SDS011;68111;44.728;11.290;2023-06-26T09:59:03;8.20;;;5.63;;
78772;SDS011;68111;44.728;11.290;2023-06-26T10:01:31;7.18;;;5.43;;
78772;SDS011;68111;44.728;11.290;2023-06-26T10:03:59;6.68;;;5.50;;
78772;SDS011;68111;44.728;11.290;2023-06-26T10:06:46;8.55;;;5.90;;
78772;SDS011;68111;44.728;11.290;2023-06-26T10:09:19;7.80;;;5.55;;
78772;SDS011;68111;44.728;11.290;2023-06-26T10:11:49;6.40;;;5.50;;
78772;SDS011;68111;44.728;11.290;2023-06-26T10:14:21;6.30;;;5.57;;
78772;SDS011;68111;44.728;11.290;2023-06-26T10:16:56;10.50;;;5.28;;
78772;SDS011;68111;44.728;11.290;2023-06-26T10:19:26;6.05;;;5.45;;
78772;SDS011;68111;44.728;11.290;2023-06-26T10:21:55;7.90;;;5.63;;
78772;SDS011;68111;44.728;11.290;2023-06-26T10:24:23;8.07;;;5.30;;
78772;SDS011;68111;44.728;11.290;2023-06-26T10:26:55;8.23;;;5.35;;
78772;SDS011;68111;44.728;11.290;2023-06-26T10:29:25;6.75;;;5.18;;
78772;SDS011;68111;44.728;11.290;2023-06-26T10:31:54;6.88;;;5.15;;
78772;SDS011;68111;44.728;11.290;2023-06-26T10:34:23;9.20;;;5.40;;
78772;SDS011;68111;44.728;11.290;2023-06-26T10:37:00;6.45;;;5.07;;
78772;SDS011;68111;44.728;11.290;2023-06-26T10:39:27;5.88;;;4.95;;
78772;SDS011;68111;44.728;11.290;2023-06-26T10:42:19;6.82;;;5.13;;
78772;SDS011;68111;44.728;11.290;2023-06-26T10:45:21;7.18;;;5.10;;
78772;SDS011;68111;44.728;11.290;2023-06-26T10:47:48;7.70;;;6.90;;
78772;SDS011;68111;44.728;11.290;2023-06-26T10:55:34;7.05;;;5.47;;
78772;SDS011;68111;44.728;11.290;2023-06-26T10:58:02;7.45;;;5.25;;
78772;SDS011;68111;44.728;11.290;2023-06-26T11:00:29;6.55;;;4.95;;
78772;SDS011;68111;44.728;11.290;2023-06-26T11:02:56;6.75;;;4.60;;
78772;SDS011;68111;44.728;11.290;2023-06-26T11:05:23;9.05;;;4.45;;
78772;SDS011;68111;44.728;11.290;2023-06-26T11:08:03;6.95;;;4.90;;
78772;SDS011;68111;44.728;11.290;2023-06-26T11:10:54;6.43;;;4.50;;
78772;SDS011;68111;44.728;11.290;2023-06-26T11:13:26;6.22;;;4.70;;
78772;SDS011;68111;44.728;11.290;2023-06-26T11:15:53;8.93;;;4.22;;
78772;SDS011;68111;44.728;11.290;2023-06-26T11:18:26;7.20;;;4.70;;
78772;SDS011;68111;44.728;11.290;2023-06-26T11:20:53;8.02;;;4.85;;
78772;SDS011;68111;44.728;11.290;2023-06-26T11:23:22;6.47;;;4.38;;
78772;SDS011;68111;44.728;11.290;2023-06-26T11:25:51;8.07;;;4.70;;
78772;SDS011;68111;44.728;11.290;2023-06-26T11:28:17;15.73;;;4.63;;
78772;SDS011;68111;44.728;11.290;2023-06-26T11:30:44;6.30;;;4.85;;
78772;SDS011;68111;44.728;11.290;2023-06-26T11:33:11;8.52;;;4.40;;
78772;SDS011;68111;44.728;11.290;2023-06-26T11:35:38;7.72;;;4.63;;
78772;SDS011;68111;44.728;11.290;2023-06-26T11:38:05;8.30;;;4.47;;
78772;SDS011;68111;44.728;11.290;2023-06-26T11:40:32;7.05;;;4.65;;
78772;SDS011;68111;44.728;11.290;2023-06-26T11:43:00;9.45;;;5.20;;
78772;SDS011;68111;44.728;11.290;2023-06-26T11:45:28;8.27;;;4.38;;
78772;SDS011;68111;44.728;11.290;2023-06-26T11:47:57;8.07;;;4.72;;
78772;SDS011;68111;44.728;11.290;2023-06-26T11:50:25;8.40;;;4.28;;
78772;SDS011;68111;44.728;11.290;2023-06-26T11:52:55;6.70;;;4.60;;
78772;SDS011;68111;44.728;11.290;2023-06-26T11:55:24;8.25;;;4.55;;
78772;SDS011;68111;44.728;11.290;2023-06-26T11:57:55;7.50;;;4.60;;
78772;SDS011;68111;44.728;11.290;2023-06-26T12:00:23;7.85;;;4.43;;
78772;SDS011;68111;44.728;11.290;2023-06-26T12:02:50;6.95;;;4.78;;
78772;SDS011;68111;44.728;11.290;2023-06-26T12:05:18;6.80;;;4.30;;
78772;SDS011;68111;44.728;11.290;2023-06-26T12:07:46;7.75;;;5.20;;
78772;SDS011;68111;44.728;11.290;2023-06-26T12:10:15;6.40;;;4.75;;
78772;SDS011;68111;44.728;11.290;2023-06-26T12:12:43;9.07;;;4.50;;
78772;SDS011;68111;44.728;11.290;2023-06-26T12:15:13;7.25;;;4.88;;
78772;SDS011;68111;44.728;11.290;2023-06-26T12:17:41;6.95;;;4.85;;
78772;SDS011;68111;44.728;11.290;2023-06-26T12:20:21;7.00;;;4.60;;
78772;SDS011;68111;44.728;11.290;2023-06-26T12:22:48;6.90;;;4.10;;
78772;SDS011;68111;44.728;11.290;2023-06-26T12:25:15;7.50;;;4.68;;
78772;SDS011;68111;44.728;11.290;2023-06-26T12:27:49;6.03;;;4.10;;
78772;SDS011;68111;44.728;11.290;2023-06-26T12:30:16;7.20;;;4.50;;
78772;SDS011;68111;44.728;11.290;2023-06-26T12:32:46;11.80;;;4.95;;
78772;SDS011;68111;44.728;11.290;2023-06-26T12:35:13;6.72;;;4.63;;
78772;SDS011;68111;44.728;11.290;2023-06-26T12:37:42;10.00;;;4.80;;
78772;SDS011;68111;44.728;11.290;2023-06-26T12:40:17;7.72;;;4.95;;
78772;SDS011;68111;44.728;11.290;2023-06-26T12:42:45;6.97;;;4.60;;
78772;SDS011;68111;44.728;11.290;2023-06-26T12:45:15;9.30;;;5.20;;
78772;SDS011;68111;44.728;11.290;2023-06-26T12:48:16;8.07;;;4.50;;
78772;SDS011;68111;44.728;11.290;2023-06-26T12:50:44;6.70;;;4.10;;
78772;SDS011;68111;44.728;11.290;2023-06-26T12:53:11;7.93;;;4.25;;
78772;SDS011;68111;44.728;11.290;2023-06-26T12:55:39;6.88;;;4.70;;
78772;SDS011;68111;44.728;11.290;2023-06-26T12:58:06;8.85;;;4.32;;
78772;SDS011;68111;44.728;11.290;2023-06-26T13:00:34;7.40;;;4.57;;
78772;SDS011;68111;44.728;11.290;2023-06-26T13:03:01;7.20;;;4.65;;
78772;SDS011;68111;44.728;11.290;2023-06-26T13:05:28;9.05;;;4.60;;
78772;SDS011;68111;44.728;11.290;2023-06-26T13:07:55;6.43;;;4.35;;
78772;SDS011;68111;44.728;11.290;2023-06-26T13:10:22;8.00;;;4.80;;
78772;SDS011;68111;44.728;11.290;2023-06-26T13:12:49;6.18;;;4.43;;
78772;SDS011;68111;44.728;11.290;2023-06-26T13:15:16;7.63;;;4.70;;
78772;SDS011;68111;44.728;11.290;2023-06-26T13:17:43;9.90;;;4.20;;
78772;SDS011;68111;44.728;11.290;2023-06-26T13:20:10;7.75;;;4.72;;
78772;SDS011;68111;44.728;11.290;2023-06-26T13:22:37;7.57;;;4.70;;
78772;SDS011;68111;44.728;11.290;2023-06-26T13:25:04;8.55;;;4.30;;
78772;SDS011;68111;44.728;11.290;2023-06-26T13:27:30;7.40;;;4.32;;
78772;SDS011;68111;44.728;11.290;2023-06-26T13:29:57;7.60;;;4.40;;
78772;SDS011;68111;44.728;11.290;2023-06-26T13:32:24;5.53;;;3.85;;
78772;SDS011;68111;44.728;11.290;2023-06-26T13:34:51;9.13;;;4.78;;
78772;SDS011;68111;44.728;11.290;2023-06-26T13:37:18;7.32;;;5.00;;
78772;SDS011;68111;44.728;11.290;2023-06-26T13:39:45;7.53;;;4.45;;
78772;SDS011;68111;44.728;11.290;2023-06-26T13:44:46;9.73;;;5.23;;
78772;SDS011;68111;44.728;11.290;2023-06-26T13:47:26;9.40;;;4.57;;
78772;SDS011;68111;44.728;11.290;2023-06-26T13:49:53;7.30;;;4.40;;
78772;SDS011;68111;44.728;11.290;2023-06-26T13:52:20;6.22;;;4.40;;
78772;SDS011;68111;44.728;11.290;2023-06-26T13:54:47;7.68;;;4.30;;
78772;SDS011;68111;44.728;11.290;2023-06-26T13:57:14;7.65;;;4.35;;
78772;SDS011;68111;44.728;11.290;2023-06-26T13:59:41;7.88;;;4.50;;
78772;SDS011;68111;44.728;11.290;2023-06-26T14:02:08;6.60;;;4.57;;
78772;SDS011;68111;44.728;11.290;2023-06-26T14:04:35;7.43;;;4.47;;
78772;SDS011;68111;44.728;11.290;2023-06-26T14:07:02;7.18;;;4.57;;
78772;SDS011;68111;44.728;11.290;2023-06-26T14:09:29;7.25;;;5.10;;
78772;SDS011;68111;44.728;11.290;2023-06-26T14:11:56;7.13;;;4.60;;
78772;SDS011;68111;44.728;11.290;2023-06-26T14:14:23;8.68;;;4.35;;
78772;SDS011;68111;44.728;11.290;2023-06-26T14:16:50;7.65;;;4.53;;
78772;SDS011;68111;44.728;11.290;2023-06-26T14:19:16;9.20;;;4.55;;
78772;SDS011;68111;44.728;11.290;2023-06-26T14:21:46;6.78;;;4.60;;
78772;SDS011;68111;44.728;11.290;2023-06-26T14:24:12;7.88;;;4.45;;
78772;SDS011;68111;44.728;11.290;2023-06-26T14:26:39;7.70;;;4.30;;
78772;SDS011;68111;44.728;11.290;2023-06-26T14:29:06;7.75;;;4.40;;
78772;SDS011;68111;44.728;11.290;2023-06-26T14:31:33;11.35;;;4.47;;
78772;SDS011;68111;44.728;11.290;2023-06-26T14:33:59;8.80;;;4.53;;
78772;SDS011;68111;44.728;11.290;2023-06-26T14:36:26;8.60;;;4.20;;
78772;SDS011;68111;44.728;11.290;2023-06-26T14:38:53;7.90;;;5.00;;
78772;SDS011;68111;44.728;11.290;2023-06-26T14:41:21;8.05;;;4.57;;
78772;SDS011;68111;44.728;11.290;2023-06-26T14:43:48;6.40;;;4.00;;
78772;SDS011;68111;44.728;11.290;2023-06-26T14:46:15;6.32;;;4.63;;
78772;SDS011;68111;44.728;11.290;2023-06-26T14:48:42;6.80;;;4.28;;
78772;SDS011;68111;44.728;11.290;2023-06-26T14:51:09;6.13;;;4.50;;
78772;SDS011;68111;44.728;11.290;2023-06-26T14:53:36;8.80;;;4.97;;